Terminal Aerodrome Forecast
Issued by NWS Upton, NY

Home | Current Version | Previous Version | Text Only | Print | Product List | Glossary On
Versions: 1 2 3 4 5 6 7 8 9 10 11 12 13 14 15 16 17 18 19 20 21 22 23 24 25
000
FTUS41 KOKX 300830 AAA
TAFISP
TAF AMD
KISP 300830Z 3009/3106 22008KT P6SM FEW050 BKN250
     FM301200 25007KT P6SM FEW050 BKN250
     FM301800 21010KT P6SM SCT050 BKN100
     FM310200 23010KT P6SM BKN050 BKN100=

USA.gov is the U.S. government's official web portal to all federal, state and local government web resources and services.